createdAt,value
2023-02-14T00:01:51.812Z,7.54
2023-02-14T00:04:38.564Z,7.66
2023-02-14T00:07:25.104Z,7.73
2023-02-14T00:10:12.422Z,7.78
2023-02-14T00:12:58.706Z,7.67
2023-02-14T00:15:46.524Z,7.69
2023-02-14T00:18:50.395Z,7.58
2023-02-14T00:21:38.719Z,7.64
2023-02-14T00:24:27.111Z,7.39
2023-02-14T00:27:13.691Z,7.51
2023-02-14T00:30:02.708Z,7.55
2023-02-14T00:32:50.615Z,7.61
2023-02-14T00:35:38.847Z,7.67
2023-02-14T00:38:25.627Z,7.59
2023-02-14T00:41:19.292Z,7.63
2023-02-14T00:44:06.794Z,7.63
2023-02-14T00:46:53.508Z,7.58
2023-02-14T00:49:44.574Z,7.51
2023-02-14T00:52:31.812Z,7.75
2023-02-14T00:55:18.704Z,7.72
2023-02-14T00:58:06.744Z,7.47
2023-02-14T01:00:53.777Z,7.41
2023-02-14T01:03:40.834Z,7.37
2023-02-14T01:06:28.875Z,7.38
2023-02-14T01:09:16.342Z,7.37
2023-02-14T01:12:03.187Z,7.40
2023-02-14T01:14:49.959Z,7.41
2023-02-14T01:17:39.233Z,7.44
2023-02-14T01:20:26.158Z,7.35
2023-02-14T01:23:14.272Z,7.37
2023-02-14T01:26:06.024Z,7.12
2023-02-14T01:28:53.565Z,7.37
2023-02-14T01:31:40.219Z,7.34
2023-02-14T01:34:26.854Z,7.31
2023-02-14T01:37:13.727Z,7.33
2023-02-14T01:40:03.009Z,7.42
2023-02-14T01:42:49.789Z,7.46
2023-02-14T01:45:36.627Z,7.40
2023-02-14T01:48:24.926Z,7.37
2023-02-14T01:51:11.791Z,7.32
2023-02-14T01:54:00.217Z,7.37
2023-02-14T01:56:52.740Z,7.31
2023-02-14T01:59:47.496Z,7.32
2023-02-14T02:02:34.363Z,7.27
2023-02-14T02:05:23.936Z,7.54
2023-02-14T02:08:10.669Z,7.36
2023-02-14T02:10:57.290Z,7.35
2023-02-14T02:13:45.312Z,6.84
2023-02-14T02:16:49.221Z,7.29
2023-02-14T02:20:15.359Z,7.38
2023-02-14T02:23:51.319Z,7.37
2023-02-14T02:27:08.384Z,7.66
2023-02-14T02:30:37.827Z,7.56
2023-02-14T02:34:01.961Z,7.47
2023-02-14T02:37:17.449Z,7.30
2023-02-14T02:40:23.476Z,7.27
2023-02-14T02:43:22.016Z,7.13
2023-02-14T02:46:34.483Z,7.12
2023-02-14T02:50:10.179Z,7.11
2023-02-14T02:53:07.027Z,7.07
2023-02-14T02:56:18.420Z,7.12
2023-02-14T02:59:18.494Z,7.10
2023-02-14T03:02:14.877Z,7.06
2023-02-14T03:05:05.659Z,7.10
2023-02-14T03:07:52.256Z,7.28
2023-02-14T03:10:40.752Z,7.20
2023-02-14T03:13:54.349Z,7.11
2023-02-14T03:16:54.849Z,7.03
2023-02-14T03:20:11.855Z,7.01
2023-02-14T03:23:05.671Z,7.10
2023-02-14T03:26:08.067Z,7.00
2023-02-14T03:29:03.930Z,6.93
2023-02-14T03:31:59.542Z,6.91
2023-02-14T03:34:55.280Z,6.92
2023-02-14T03:37:49.011Z,6.95
2023-02-14T03:40:40.236Z,6.92
2023-02-14T03:43:32.869Z,7.04
2023-02-14T03:46:25.585Z,6.95
2023-02-14T03:49:18.752Z,6.69
2023-02-14T03:52:08.529Z,6.79
2023-02-14T03:54:59.258Z,6.90
2023-02-14T03:57:54.145Z,6.95
2023-02-14T04:00:43.731Z,7.01
2023-02-14T04:03:33.426Z,7.08
2023-02-14T04:06:21.087Z,7.03
2023-02-14T04:09:07.738Z,7.06
2023-02-14T04:11:54.593Z,7.07
2023-02-14T04:14:41.473Z,6.81
2023-02-14T04:17:46.660Z,7.02
2023-02-14T04:20:34.261Z,6.97
2023-02-14T04:23:20.930Z,7.00
2023-02-14T04:26:08.104Z,7.06
2023-02-14T04:28:54.758Z,7.22
2023-02-14T04:31:42.237Z,7.34
2023-02-14T04:34:30.046Z,7.28
2023-02-14T04:37:19.640Z,7.24
2023-02-14T04:40:07.355Z,7.28
2023-02-14T04:42:54.260Z,7.33
2023-02-14T04:45:40.831Z,7.27
2023-02-14T04:48:27.618Z,7.29
2023-02-14T04:51:15.873Z,7.11
2023-02-14T04:54:02.740Z,7.09
2023-02-14T04:56:49.657Z,7.07
2023-02-14T04:59:36.408Z,7.02
2023-02-14T05:02:23.273Z,6.99
2023-02-14T05:05:09.974Z,6.97
2023-02-14T05:07:58.140Z,7.08
2023-02-14T05:10:45.252Z,6.70
2023-02-14T05:13:32.166Z,6.97
2023-02-14T05:16:19.115Z,6.90
2023-02-14T05:19:05.838Z,6.84
2023-02-14T05:21:52.725Z,6.85
2023-02-14T05:24:40.790Z,7.01
2023-02-14T05:27:27.467Z,6.96
2023-02-14T05:30:15.329Z,6.96
2023-02-14T05:33:02.555Z,6.96
2023-02-14T05:35:49.705Z,7.06
2023-02-14T05:38:36.738Z,7.19
2023-02-14T05:41:24.799Z,7.03
2023-02-14T05:44:11.546Z,6.97
2023-02-14T05:46:58.282Z,6.98
2023-02-14T05:49:44.971Z,6.97
2023-02-14T05:52:31.706Z,6.78
2023-02-14T05:55:18.622Z,6.73
2023-02-14T05:58:07.581Z,6.73
2023-02-14T06:00:54.008Z,6.83
2023-02-14T06:03:40.826Z,6.70
2023-02-14T06:06:27.850Z,6.78
2023-02-14T06:09:15.003Z,7.08
2023-02-14T06:12:01.855Z,6.91
2023-02-14T06:14:50.040Z,7.00
2023-02-14T06:17:36.908Z,6.87
2023-02-14T06:20:25.292Z,6.97
2023-02-14T06:23:11.787Z,6.84
2023-02-14T06:25:58.862Z,6.77
2023-02-14T06:28:45.352Z,6.80
2023-02-14T06:31:33.738Z,6.95
2023-02-14T06:34:20.647Z,6.80
2023-02-14T06:37:07.447Z,6.85
2023-02-14T06:39:54.172Z,6.84
2023-02-14T06:42:41.119Z,6.91
2023-02-14T06:45:27.825Z,7.01
2023-02-14T06:48:15.974Z,7.09
2023-02-14T06:51:03.196Z,7.01
2023-02-14T06:53:49.784Z,7.04
2023-02-14T06:56:36.552Z,7.01
2023-02-14T06:59:23.325Z,7.04
2023-02-14T07:02:15.358Z,7.08
2023-02-14T07:05:03.838Z,7.11
2023-02-14T07:07:50.846Z,7.06
2023-02-14T07:10:37.264Z,7.12
2023-02-14T07:13:24.428Z,7.13
2023-02-14T07:16:10.963Z,7.12
2023-02-14T07:18:57.686Z,7.18
2023-02-14T07:21:45.830Z,7.19
2023-02-14T07:24:32.625Z,7.21
2023-02-14T07:27:19.374Z,7.26
2023-02-14T07:30:07.559Z,7.39
2023-02-14T07:32:54.040Z,7.42
2023-02-14T07:35:40.910Z,7.63
2023-02-14T07:38:30.625Z,7.48
2023-02-14T07:41:17.499Z,7.47
2023-02-14T07:44:04.192Z,7.59
2023-02-14T07:46:51.070Z,7.54
2023-02-14T07:49:38.228Z,7.74
2023-02-14T07:52:25.199Z,7.65
2023-02-14T07:55:13.396Z,7.65
2023-02-14T07:58:00.150Z,7.70
2023-02-14T08:00:47.626Z,7.68
2023-02-14T08:03:34.465Z,7.79
2023-02-14T08:06:21.692Z,7.75
2023-02-14T08:09:12.177Z,7.70
2023-02-14T08:12:17.809Z,7.72
2023-02-14T08:15:24.237Z,7.74
2023-02-14T08:18:13.562Z,7.86
2023-02-14T08:21:00.989Z,7.89
2023-02-14T08:23:47.746Z,8.11
2023-02-14T08:26:34.458Z,7.81
2023-02-14T08:29:22.678Z,7.90
2023-02-14T08:32:09.387Z,8.01
2023-02-14T08:34:56.076Z,8.11
2023-02-14T08:37:42.978Z,8.09
2023-02-14T08:40:29.843Z,8.14
2023-02-14T08:43:16.787Z,8.36
2023-02-14T08:46:05.065Z,8.32
2023-02-14T08:48:53.508Z,8.38
2023-02-14T08:51:39.870Z,8.32
2023-02-14T08:54:26.650Z,8.31
2023-02-14T08:57:15.597Z,8.48
2023-02-14T09:00:02.120Z,8.36
2023-02-14T09:02:53.049Z,8.36
2023-02-14T09:05:39.820Z,8.35
2023-02-14T09:08:26.717Z,8.34
2023-02-14T09:11:15.231Z,8.36
2023-02-14T09:14:01.910Z,8.42
2023-02-14T09:16:48.707Z,8.41
2023-02-14T09:19:38.849Z,8.53
2023-02-14T09:22:25.441Z,8.65
2023-02-14T09:25:12.771Z,8.61
2023-02-14T09:27:59.693Z,8.45
2023-02-14T09:30:46.384Z,8.51
2023-02-14T09:33:33.233Z,8.65
2023-02-14T09:36:21.467Z,8.70
2023-02-14T09:39:07.992Z,8.54
2023-02-14T09:42:16.488Z,8.57
2023-02-14T09:45:08.176Z,8.48
2023-02-14T09:47:58.998Z,8.57
2023-02-14T09:50:50.895Z,8.68
2023-02-14T09:53:45.071Z,8.90
2023-02-14T09:56:51.690Z,8.79
2023-02-14T09:59:50.366Z,8.67
2023-02-14T10:02:43.695Z,8.69
2023-02-14T10:05:33.520Z,8.69
2023-02-14T10:08:39.485Z,8.82
2023-02-14T10:11:29.676Z,8.73
2023-02-14T10:14:21.162Z,8.73
2023-02-14T10:17:11.057Z,8.65
2023-02-14T10:20:02.839Z,8.98
2023-02-14T10:22:56.428Z,8.78
2023-02-14T10:25:48.062Z,8.79
2023-02-14T10:28:41.033Z,8.92
2023-02-14T10:31:31.205Z,8.93
2023-02-14T10:34:23.564Z,8.88
2023-02-14T10:37:25.148Z,9.09
2023-02-14T10:40:36.162Z,9.22
2023-02-14T10:43:35.234Z,9.05
2023-02-14T10:46:34.317Z,8.84
2023-02-14T10:49:34.551Z,8.76
2023-02-14T10:52:26.711Z,8.90
2023-02-14T10:55:31.372Z,8.68
2023-02-14T10:58:21.516Z,8.81
2023-02-14T11:01:12.075Z,9.03
2023-02-14T11:04:04.283Z,9.11
2023-02-14T11:06:51.631Z,8.90
2023-02-14T11:09:38.098Z,9.04
2023-02-14T11:12:37.595Z,9.21
2023-02-14T11:15:28.491Z,9.42
2023-02-14T11:18:23.672Z,9.35
2023-02-14T11:21:14.667Z,9.42
2023-02-14T11:24:01.506Z,9.20
2023-02-14T11:26:50.197Z,9.33
2023-02-14T11:29:45.666Z,9.27
2023-02-14T11:32:37.639Z,8.89
2023-02-14T11:35:30.273Z,9.06
2023-02-14T11:38:30.655Z,8.75
2023-02-14T11:41:18.215Z,8.90
2023-02-14T11:44:22.292Z,9.28
2023-02-14T11:47:27.871Z,9.33
2023-02-14T11:50:23.393Z,9.47
2023-02-14T11:53:13.129Z,9.51
2023-02-14T11:56:01.542Z,9.24
2023-02-14T11:58:54.405Z,9.25
2023-02-14T12:01:41.450Z,9.11
2023-02-14T12:04:38.118Z,9.15
2023-02-14T12:07:32.130Z,9.43
2023-02-14T12:10:22.601Z,9.27
2023-02-14T12:13:26.753Z,9.23
2023-02-14T12:16:22.639Z,9.49
2023-02-14T12:19:18.530Z,9.68
2023-02-14T12:22:07.650Z,9.78
2023-02-14T12:25:03.809Z,9.82
2023-02-14T12:27:54.991Z,9.94
2023-02-14T12:30:42.935Z,9.80
2023-02-14T12:33:29.436Z,9.70
2023-02-14T12:36:29.522Z,9.77
2023-02-14T12:39:27.276Z,9.74
2023-02-14T12:42:26.955Z,9.57
2023-02-14T12:45:20.191Z,9.40
2023-02-14T12:48:22.971Z,9.23
2023-02-14T12:51:15.193Z,9.16
2023-02-14T12:54:18.490Z,9.44
2023-02-14T12:57:14.222Z,9.52
2023-02-14T13:00:15.044Z,9.78
2023-02-14T13:03:32.431Z,9.83
2023-02-14T13:06:27.484Z,9.82
2023-02-14T13:09:34.994Z,9.84
2023-02-14T13:12:35.141Z,9.74
2023-02-14T13:15:30.121Z,9.94
2023-02-14T13:18:27.703Z,9.84
2023-02-14T13:21:19.933Z,9.71
2023-02-14T13:24:18.420Z,9.74
2023-02-14T13:27:08.261Z,9.70
2023-02-14T13:30:01.612Z,9.58
2023-02-14T13:32:56.066Z,9.46
2023-02-14T13:35:43.377Z,9.51
2023-02-14T13:38:33.006Z,9.54
2023-02-14T13:41:22.226Z,9.48
2023-02-14T13:44:13.143Z,9.44
2023-02-14T13:47:00.381Z,9.33
2023-02-14T13:49:54.258Z,9.39
2023-02-14T13:52:47.016Z,9.47
2023-02-14T13:55:37.703Z,9.44
2023-02-14T13:58:25.867Z,9.57
2023-02-14T14:01:31.550Z,9.40
2023-02-14T14:04:38.528Z,9.48
2023-02-14T14:07:30.151Z,9.34
2023-02-14T14:10:46.078Z,9.51
2023-02-14T14:14:02.684Z,9.36
2023-02-14T14:16:59.360Z,9.29
2023-02-14T14:19:47.472Z,9.38
2023-02-14T14:22:47.913Z,9.26
2023-02-14T14:25:37.594Z,9.35
2023-02-14T14:28:27.996Z,9.32
2023-02-14T14:31:15.066Z,9.23
2023-02-14T14:34:02.769Z,9.14
2023-02-14T14:36:49.799Z,9.22
2023-02-14T14:39:39.966Z,9.30
2023-02-14T14:42:30.612Z,9.19
2023-02-14T14:45:24.925Z,9.02
2023-02-14T14:48:14.451Z,9.03
2023-02-14T14:51:01.572Z,9.01
2023-02-14T14:53:51.955Z,8.84
2023-02-14T14:56:47.039Z,8.70
2023-02-14T14:59:35.842Z,8.50
2023-02-14T15:02:26.422Z,8.44
2023-02-14T15:05:26.064Z,8.26
2023-02-14T15:08:17.863Z,8.18
2023-02-14T15:11:13.117Z,8.03
2023-02-14T15:13:59.875Z,7.97
2023-02-14T15:16:49.753Z,7.78
2023-02-14T15:19:41.835Z,7.65
2023-02-14T15:22:31.330Z,7.70
2023-02-14T15:25:21.204Z,7.59
2023-02-14T15:28:07.816Z,7.42
2023-02-14T15:30:59.231Z,7.26
2023-02-14T15:33:46.050Z,7.35
2023-02-14T15:36:36.086Z,7.23
2023-02-14T15:39:28.487Z,7.17
2023-02-14T15:42:25.838Z,7.04
2023-02-14T15:45:17.057Z,7.00
2023-02-14T15:48:09.274Z,6.90
2023-02-14T15:50:59.176Z,6.84
2023-02-14T15:53:52.741Z,6.65
2023-02-14T15:56:45.720Z,6.57
2023-02-14T15:59:34.973Z,6.45
2023-02-14T16:02:31.248Z,6.04
2023-02-14T16:05:20.395Z,6.39
2023-02-14T16:08:24.132Z,6.29
2023-02-14T16:11:16.957Z,6.29
2023-02-14T16:14:21.777Z,6.16
2023-02-14T16:17:13.003Z,6.11
2023-02-14T16:19:59.782Z,5.97
2023-02-14T16:22:46.817Z,5.89
2023-02-14T16:25:33.672Z,5.77
2023-02-14T16:28:22.028Z,5.74
2023-02-14T16:31:12.541Z,5.57
2023-02-14T16:33:59.630Z,5.41
2023-02-14T16:36:46.491Z,5.33
2023-02-14T16:39:33.363Z,5.28
2023-02-14T16:42:20.339Z,5.18
2023-02-14T16:45:15.214Z,5.11
2023-02-14T16:48:01.651Z,5.21
2023-02-14T16:50:48.692Z,5.01
2023-02-14T16:53:36.236Z,5.04
2023-02-14T16:56:27.390Z,4.98
2023-02-14T16:59:14.039Z,5.04
2023-02-14T17:02:02.360Z,4.91
2023-02-14T17:04:48.786Z,4.76
2023-02-14T17:07:35.814Z,4.64
2023-02-14T17:10:22.499Z,4.41
2023-02-14T17:13:10.775Z,4.35
2023-02-14T17:15:58.315Z,4.50
2023-02-14T17:18:49.557Z,4.78
2023-02-14T17:21:36.268Z,4.72
2023-02-14T17:24:22.740Z,4.58
2023-02-14T17:27:09.946Z,4.70
2023-02-14T17:29:56.454Z,4.65
2023-02-14T17:32:43.199Z,4.69
2023-02-14T17:35:31.533Z,4.70
2023-02-14T17:38:20.248Z,4.86
2023-02-14T17:41:14.936Z,5.01
2023-02-14T17:44:02.066Z,5.15
2023-02-14T17:46:48.651Z,5.20
2023-02-14T17:49:35.592Z,5.24
2023-02-14T17:52:24.309Z,5.25
2023-02-14T17:55:11.225Z,5.32
2023-02-14T17:57:58.749Z,5.29
2023-02-14T18:00:45.752Z,5.43
2023-02-14T18:03:32.863Z,5.46
2023-02-14T18:06:19.925Z,5.48
2023-02-14T18:09:08.190Z,5.30
2023-02-14T18:11:55.648Z,5.14
2023-02-14T18:14:42.372Z,5.08
2023-02-14T18:17:29.344Z,5.16
2023-02-14T18:20:16.125Z,4.93
2023-02-14T18:23:07.146Z,4.81
2023-02-14T18:25:57.707Z,4.76
2023-02-14T18:28:44.550Z,4.65
2023-02-14T18:31:31.671Z,4.55
2023-02-14T18:34:18.558Z,4.57
2023-02-14T18:37:06.149Z,4.39
2023-02-14T18:39:52.677Z,4.34
2023-02-14T18:42:40.794Z,4.37
2023-02-14T18:45:27.668Z,4.41
2023-02-14T18:48:14.372Z,4.42
2023-02-14T18:51:06.583Z,4.29
2023-02-14T18:53:54.581Z,3.82
2023-02-14T18:56:41.768Z,4.33
2023-02-14T18:59:29.585Z,4.37
2023-02-14T19:02:16.783Z,4.29
2023-02-14T19:05:04.376Z,4.31
2023-02-14T19:07:55.191Z,4.21
2023-02-14T19:10:41.857Z,4.25
2023-02-14T19:13:29.498Z,4.31
2023-02-14T19:16:20.128Z,4.41
2023-02-14T19:19:06.578Z,4.37
2023-02-14T19:21:53.573Z,4.38
2023-02-14T19:24:40.174Z,4.36
2023-02-14T19:27:26.917Z,4.29
2023-02-14T19:30:14.193Z,4.14
2023-02-14T19:33:02.176Z,4.07
2023-02-14T19:35:50.280Z,4.13
2023-02-14T19:38:36.900Z,4.12
2023-02-14T19:41:26.009Z,4.00
2023-02-14T19:44:14.795Z,4.19
2023-02-14T19:47:05.892Z,4.19
2023-02-14T19:50:00.579Z,4.20
2023-02-14T19:52:47.317Z,4.17
2023-02-14T19:55:34.946Z,4.20
2023-02-14T19:58:21.616Z,4.13
2023-02-14T20:01:08.273Z,4.18
2023-02-14T20:03:55.243Z,4.27
2023-02-14T20:06:43.944Z,4.34
2023-02-14T20:09:30.385Z,4.28
2023-02-14T20:12:17.349Z,4.42
2023-02-14T20:15:05.843Z,4.52
2023-02-14T20:17:53.380Z,4.52
2023-02-14T20:21:05.957Z,4.51
2023-02-14T20:23:54.545Z,4.49
2023-02-14T20:26:42.639Z,4.58
2023-02-14T20:29:29.942Z,4.59
2023-02-14T20:32:17.490Z,4.63
2023-02-14T20:35:04.262Z,4.77
2023-02-14T20:37:52.521Z,4.75
2023-02-14T20:40:42.758Z,4.74
2023-02-14T20:43:29.334Z,4.83
2023-02-14T20:46:16.075Z,4.76
2023-02-14T20:49:03.341Z,4.76
2023-02-14T20:51:51.571Z,4.74
2023-02-14T20:54:39.428Z,4.74
2023-02-14T20:57:27.210Z,4.80
2023-02-14T21:00:15.180Z,4.84
2023-02-14T21:03:01.810Z,4.79
2023-02-14T21:05:49.084Z,4.75
2023-02-14T21:08:36.818Z,4.71
2023-02-14T21:11:25.172Z,4.86
2023-02-14T21:14:13.232Z,5.01
2023-02-14T21:17:00.025Z,5.07
2023-02-14T21:19:46.778Z,5.12
2023-02-14T21:22:33.837Z,5.12
2023-02-14T21:25:23.387Z,5.08
2023-02-14T21:28:10.814Z,5.17
2023-02-14T21:31:05.383Z,5.24
2023-02-14T21:33:53.458Z,5.27
2023-02-14T21:36:40.285Z,5.32
2023-02-14T21:39:27.938Z,5.30
2023-02-14T21:42:17.214Z,5.23
2023-02-14T21:45:22.873Z,5.37
2023-02-14T21:48:33.615Z,5.51
2023-02-14T21:51:20.802Z,5.49
2023-02-14T21:54:07.815Z,5.72
2023-02-14T21:56:54.707Z,5.79
2023-02-14T21:59:41.851Z,5.77
2023-02-14T22:02:28.364Z,5.85
2023-02-14T22:05:16.714Z,5.70
2023-02-14T22:08:03.610Z,5.85
2023-02-14T22:10:50.265Z,5.94
2023-02-14T22:13:37.443Z,6.03
2023-02-14T22:16:27.219Z,6.01
2023-02-14T22:19:16.104Z,6.15
2023-02-14T22:22:04.054Z,6.17
2023-02-14T22:24:50.767Z,6.32
2023-02-14T22:27:40.023Z,6.18
2023-02-14T22:30:26.577Z,6.34
2023-02-14T22:33:13.305Z,6.45
2023-02-14T22:36:01.059Z,6.53
2023-02-14T22:38:49.526Z,6.36
2023-02-14T22:41:38.033Z,6.27
2023-02-14T22:44:25.087Z,6.06
2023-02-14T22:47:12.734Z,6.30
2023-02-14T22:50:01.420Z,6.21
2023-02-14T22:52:49.065Z,6.25
2023-02-14T22:55:38.039Z,6.50
2023-02-14T22:58:26.732Z,6.38
2023-02-14T23:01:18.819Z,6.51
2023-02-14T23:04:07.425Z,6.42
2023-02-14T23:06:56.297Z,6.55
2023-02-14T23:09:43.448Z,6.48
2023-02-14T23:12:49.569Z,6.61
2023-02-14T23:15:54.449Z,6.65
2023-02-14T23:18:59.446Z,6.67
2023-02-14T23:21:58.381Z,6.62
2023-02-14T23:24:46.837Z,6.60
2023-02-14T23:27:37.725Z,6.66
2023-02-14T23:30:24.878Z,6.61
2023-02-14T23:33:11.565Z,6.65
2023-02-14T23:35:58.320Z,6.60
2023-02-14T23:38:45.081Z,6.60
2023-02-14T23:41:49.980Z,6.63
2023-02-14T23:44:38.223Z,6.79
2023-02-14T23:47:24.746Z,6.62
2023-02-14T23:50:16.565Z,6.61
2023-02-14T23:53:05.797Z,6.53
2023-02-14T23:55:53.140Z,6.51
2023-02-14T23:58:40.589Z,6.56
